createdAt,value
2018-02-25T00:00:38.288Z,99431
2018-02-25T00:03:07.189Z,99434
2018-02-25T00:05:36.121Z,99438
2018-02-25T00:08:04.277Z,99442
2018-02-25T00:10:32.409Z,99448
2018-02-25T00:13:01.378Z,99434
2018-02-25T00:15:29.529Z,99437
2018-02-25T00:17:58.488Z,99435
2018-02-25T00:20:26.645Z,99434
2018-02-25T00:22:55.557Z,99423
2018-02-25T00:25:23.685Z,99425
2018-02-25T00:27:51.840Z,99426
2018-02-25T00:30:19.973Z,99422
2018-02-25T00:32:48.154Z,99419
2018-02-25T00:35:16.305Z,99421
2018-02-25T00:37:45.231Z,99420
2018-02-25T00:40:13.369Z,99408
2018-02-25T00:42:42.294Z,99421
2018-02-25T00:45:10.442Z,99414
2018-02-25T00:47:39.410Z,99414
2018-02-25T00:50:07.551Z,99429
2018-02-25T00:52:35.712Z,99419
2018-02-25T00:55:03.850Z,99416
2018-02-25T00:57:31.997Z,99412
2018-02-25T01:00:00.161Z,99409
2018-02-25T01:02:28.291Z,99421
2018-02-25T01:04:56.445Z,99428
2018-02-25T01:07:24.578Z,99432
2018-02-25T01:09:52.728Z,99433
2018-02-25T01:12:20.868Z,99428
2018-02-25T01:14:49.033Z,99427
2018-02-25T01:17:17.932Z,99440
2018-02-25T01:19:46.121Z,99441
2018-02-25T01:22:14.257Z,99443
2018-02-25T01:24:43.185Z,99449
2018-02-25T01:27:11.304Z,99450
2018-02-25T01:29:39.429Z,99449
2018-02-25T01:32:07.585Z,99452
2018-02-25T01:34:35.728Z,99453
2018-02-25T01:37:03.885Z,99446
2018-02-25T01:39:32.019Z,99456
2018-02-25T01:42:00.173Z,99454
2018-02-25T01:44:28.328Z,99459
2018-02-25T01:46:57.248Z,99439
2018-02-25T01:49:25.393Z,99444
2018-02-25T01:51:53.545Z,99437
2018-02-25T01:54:21.687Z,99441
2018-02-25T01:56:49.917Z,99448
2018-02-25T01:59:18.841Z,99431
2018-02-25T02:01:47.049Z,99436
2018-02-25T02:04:15.266Z,99438
2018-02-25T02:06:44.225Z,99442
2018-02-25T02:09:12.376Z,99442
2018-02-25T02:11:40.521Z,99443
2018-02-25T02:14:08.725Z,99438
2018-02-25T02:16:36.861Z,99434
2018-02-25T02:19:05.009Z,99439
2018-02-25T02:21:33.912Z,99435
2018-02-25T02:24:02.837Z,99437
2018-02-25T02:26:30.987Z,99441
2018-02-25T02:28:59.153Z,99444
2018-02-25T02:31:27.289Z,99444
2018-02-25T02:33:55.505Z,99441
2018-02-25T02:36:23.637Z,99444
2018-02-25T02:38:51.796Z,99450
2018-02-25T02:41:19.958Z,99432
2018-02-25T02:43:48.096Z,99438
2018-02-25T02:46:16.253Z,99441
2018-02-25T02:48:45.156Z,99438
2018-02-25T02:51:13.313Z,99441
2018-02-25T02:53:42.221Z,99431
2018-02-25T02:56:11.197Z,99435
2018-02-25T02:58:40.098Z,99433
2018-02-25T03:01:09.031Z,99443
2018-02-25T03:03:37.169Z,99439
2018-02-25T03:06:05.308Z,99443
2018-02-25T03:08:33.477Z,99436
2018-02-25T03:11:01.613Z,99442
2018-02-25T03:13:29.821Z,99439
2018-02-25T03:15:58.050Z,99435
2018-02-25T03:18:26.216Z,99441
2018-02-25T03:20:54.363Z,99431
2018-02-25T03:23:23.289Z,99437
2018-02-25T03:25:51.425Z,99443
2018-02-25T03:28:20.358Z,99449
2018-02-25T03:30:48.492Z,99443
2018-02-25T03:33:17.415Z,99437
2018-02-25T03:35:45.577Z,99442
2018-02-25T03:38:13.736Z,99439
2018-02-25T03:40:42.636Z,99447
2018-02-25T03:43:10.788Z,99446
2018-02-25T03:45:38.926Z,99444
2018-02-25T03:48:07.085Z,99439
2018-02-25T03:50:35.225Z,99440
2018-02-25T03:53:04.161Z,99447
2018-02-25T03:55:32.300Z,99436
2018-02-25T03:58:00.448Z,99446
2018-02-25T04:00:29.355Z,99445
2018-02-25T04:02:58.276Z,99447
2018-02-25T04:05:26.417Z,99444
2018-02-25T04:07:55.376Z,99442
2018-02-25T04:10:23.511Z,99443
2018-02-25T04:12:51.701Z,99452
2018-02-25T04:15:19.836Z,99450
2018-02-25T04:17:47.993Z,99448
2018-02-25T04:20:16.137Z,99441
2018-02-25T04:22:44.281Z,99452
2018-02-25T04:25:12.413Z,99447
2018-02-25T04:27:41.341Z,99446
2018-02-25T04:30:09.487Z,99445
2018-02-25T04:32:38.408Z,99451
2018-02-25T04:35:06.545Z,99448
2018-02-25T04:37:35.463Z,99451
2018-02-25T04:40:03.601Z,99450
2018-02-25T04:42:32.518Z,99453
2018-02-25T04:45:00.648Z,99454
2018-02-25T04:47:28.806Z,99451
2018-02-25T04:49:56.991Z,99455
2018-02-25T04:52:25.152Z,99463
2018-02-25T04:54:53.293Z,99452
2018-02-25T04:57:21.445Z,99464
2018-02-25T04:59:49.584Z,99456
2018-02-25T05:02:17.738Z,99464
2018-02-25T05:04:45.874Z,99461
2018-02-25T05:07:14.025Z,99450
2018-02-25T05:09:42.924Z,99472
2018-02-25T05:12:11.846Z,99460
2018-02-25T05:14:39.985Z,99463
2018-02-25T05:17:08.902Z,99460
2018-02-25T05:19:37.042Z,99463
2018-02-25T05:22:05.174Z,99462
2018-02-25T05:24:33.329Z,99470
2018-02-25T05:27:01.483Z,99468
2018-02-25T05:29:29.651Z,99459
2018-02-25T05:31:57.905Z,99466
2018-02-25T05:34:26.049Z,99465
2018-02-25T05:36:54.181Z,99460
2018-02-25T05:39:22.341Z,99470
2018-02-25T05:41:50.464Z,99481
2018-02-25T05:44:18.613Z,99478
2018-02-25T05:46:46.752Z,99471
2018-02-25T05:49:15.688Z,99477
2018-02-25T05:51:43.828Z,99477
2018-02-25T05:54:12.177Z,99476
2018-02-25T05:56:41.076Z,99479
2018-02-25T05:59:09.992Z,99480
2018-02-25T06:01:38.129Z,99483
2018-02-25T06:04:06.277Z,99485
2018-02-25T06:06:34.413Z,99492
2018-02-25T06:09:02.568Z,99484
2018-02-25T06:11:31.469Z,99494
2018-02-25T06:13:59.629Z,99487
2018-02-25T06:16:28.532Z,99478
2018-02-25T06:18:56.693Z,99482
2018-02-25T06:21:24.829Z,99486
2018-02-25T06:23:52.981Z,99478
2018-02-25T06:26:21.115Z,99476
2018-02-25T06:28:50.042Z,99485
2018-02-25T06:31:18.181Z,99473
2018-02-25T06:33:46.340Z,99494
2018-02-25T06:36:15.250Z,99489
2018-02-25T06:38:43.408Z,99495
2018-02-25T06:41:12.313Z,99484
2018-02-25T06:43:40.479Z,99484
2018-02-25T06:46:09.385Z,99494
2018-02-25T06:48:37.557Z,99484
2018-02-25T06:51:05.693Z,99486
2018-02-25T06:53:33.844Z,99480
2018-02-25T06:56:01.973Z,99483
2018-02-25T06:58:30.125Z,99484
2018-02-25T07:00:59.050Z,99485
2018-02-25T07:03:27.204Z,99488
2018-02-25T07:05:55.341Z,99488
2018-02-25T07:08:23.508Z,99491
2018-02-25T07:10:51.721Z,99498
2018-02-25T07:13:19.884Z,99492
2018-02-25T07:15:48.785Z,99500
2018-02-25T07:18:16.950Z,99491
2018-02-25T07:20:45.871Z,99497
2018-02-25T07:23:14.033Z,99482
2018-02-25T07:25:42.173Z,99489
2018-02-25T07:28:10.320Z,99488
2018-02-25T07:30:38.458Z,99490
2018-02-25T07:33:06.733Z,99484
2018-02-25T07:35:34.904Z,99484
2018-02-25T07:38:03.076Z,99472
2018-02-25T07:40:31.253Z,99476
2018-02-25T07:42:59.485Z,99475
2018-02-25T07:45:27.691Z,99480
2018-02-25T07:47:55.884Z,99472
2018-02-25T07:50:24.054Z,99470
2018-02-25T07:52:52.210Z,99469
2018-02-25T07:55:20.389Z,99475
2018-02-25T07:57:48.604Z,99476
2018-02-25T08:00:16.843Z,99470
2018-02-25T08:02:45.014Z,99468
2018-02-25T08:05:13.214Z,99482
2018-02-25T08:07:41.461Z,99476
2018-02-25T08:10:09.665Z,99472
2018-02-25T08:12:37.857Z,99471
2018-02-25T08:15:06.066Z,99470
2018-02-25T08:17:34.238Z,99474
2018-02-25T08:20:03.205Z,99466
2018-02-25T08:22:31.430Z,99477
2018-02-25T08:24:59.713Z,99482
2018-02-25T08:27:27.870Z,99488
2018-02-25T08:29:56.081Z,99474
2018-02-25T08:32:24.279Z,99478
2018-02-25T08:34:52.528Z,99477
2018-02-25T08:37:20.730Z,99488
2018-02-25T08:39:48.933Z,99467
2018-02-25T08:42:17.857Z,99483
2018-02-25T08:44:46.073Z,99475
2018-02-25T08:47:14.245Z,99471
2018-02-25T08:49:42.451Z,99469
2018-02-25T08:52:10.641Z,99468
2018-02-25T08:54:38.821Z,99468
2018-02-25T08:57:07.866Z,99467
2018-02-25T08:59:36.081Z,99453
2018-02-25T09:02:04.320Z,99463
2018-02-25T09:04:32.487Z,99453
2018-02-25T09:07:00.680Z,99444
2018-02-25T09:09:28.932Z,99451
2018-02-25T09:11:57.163Z,99446
2018-02-25T09:14:25.358Z,99454
2018-02-25T09:16:53.537Z,99446
2018-02-25T09:19:21.699Z,99444
2018-02-25T09:21:50.693Z,99453
2018-02-25T09:24:18.853Z,99439
2018-02-25T09:26:50.474Z,99446
2018-02-25T09:29:18.654Z,99431
2018-02-25T09:31:46.889Z,99438
2018-02-25T09:34:15.090Z,99440
2018-02-25T09:36:44.100Z,99439
2018-02-25T09:39:12.270Z,99438
2018-02-25T09:41:40.465Z,99435
2018-02-25T09:44:08.643Z,99435
2018-02-25T09:46:36.838Z,99432
2018-02-25T09:49:05.031Z,99425
2018-02-25T09:51:33.194Z,99435
2018-02-25T09:54:01.430Z,99427
2018-02-25T09:56:29.568Z,99427
2018-02-25T09:58:58.489Z,99428
2018-02-25T10:01:26.624Z,99419
2018-02-25T10:03:54.776Z,99414
2018-02-25T10:06:22.906Z,99426
2018-02-25T10:08:51.060Z,99434
2018-02-25T10:11:19.952Z,99419
2018-02-25T10:13:48.869Z,99419
2018-02-25T10:16:17.014Z,99410
2018-02-25T10:18:45.960Z,99411
2018-02-25T10:21:14.178Z,99415
2018-02-25T10:23:43.174Z,99411
2018-02-25T10:26:12.139Z,99416
2018-02-25T10:28:40.293Z,99408
2018-02-25T10:31:08.439Z,99416
2018-02-25T10:33:36.595Z,99418
2018-02-25T10:36:04.739Z,99402
2018-02-25T10:38:32.893Z,99417
2018-02-25T10:41:01.093Z,99408
2018-02-25T10:43:30.099Z,99417
2018-02-25T10:45:59.026Z,99412
2018-02-25T10:48:27.221Z,99409
2018-02-25T10:50:55.383Z,99402
2018-02-25T10:53:23.618Z,99407
2018-02-25T10:55:51.805Z,99399
2018-02-25T10:58:19.993Z,99395
2018-02-25T11:00:53.747Z,99398
2018-02-25T11:03:21.921Z,99400
2018-02-25T11:05:50.833Z,99390
2018-02-25T11:08:19.733Z,99387
2018-02-25T11:10:47.877Z,99375
2018-02-25T11:13:16.789Z,99366
2018-02-25T11:15:44.930Z,99369
2018-02-25T11:18:13.054Z,99363
2018-02-25T11:20:41.203Z,99364
2018-02-25T11:23:09.345Z,99373
2018-02-25T11:25:37.488Z,99356
2018-02-25T11:28:05.610Z,99352
2018-02-25T11:30:34.522Z,99343
2018-02-25T11:33:02.657Z,99344
2018-02-25T11:35:30.797Z,99346
2018-02-25T11:37:58.921Z,99347
2018-02-25T11:40:27.065Z,99331
2018-02-25T11:42:55.192Z,99326
2018-02-25T11:45:23.423Z,99326
2018-02-25T11:47:51.586Z,99326
2018-02-25T11:50:19.780Z,99325
2018-02-25T11:52:48.750Z,99330
2018-02-25T11:55:16.925Z,99329
2018-02-25T11:57:45.039Z,99323
2018-02-25T12:00:13.183Z,99327
2018-02-25T12:02:41.325Z,99326
2018-02-25T12:05:09.468Z,99330
2018-02-25T12:07:37.588Z,99312
2018-02-25T12:10:05.743Z,99324
2018-02-25T12:12:33.877Z,99319
2018-02-25T12:15:02.028Z,99322
2018-02-25T12:17:30.925Z,99314
2018-02-25T12:19:59.828Z,99319
2018-02-25T12:22:27.953Z,99297
2018-02-25T12:24:56.100Z,99298
2018-02-25T12:27:24.221Z,99308
2018-02-25T12:29:52.361Z,99304
2018-02-25T12:32:20.484Z,99298
2018-02-25T12:34:49.406Z,99289
2018-02-25T12:37:17.533Z,99299
2018-02-25T12:39:46.433Z,99291
2018-02-25T12:42:15.349Z,99295
2018-02-25T12:44:43.476Z,99288
2018-02-25T12:47:11.657Z,99289
2018-02-25T12:49:39.788Z,99289
2018-02-25T12:52:07.933Z,99279
2018-02-25T12:54:36.076Z,99282
2018-02-25T12:57:05.000Z,99284
2018-02-25T12:59:33.134Z,99277
2018-02-25T13:02:01.284Z,99280
2018-02-25T13:04:29.417Z,99268
2018-02-25T13:06:57.582Z,99276
2018-02-25T13:09:26.481Z,99274
2018-02-25T13:11:54.629Z,99269
2018-02-25T13:14:23.525Z,99260
2018-02-25T13:16:52.440Z,99260
2018-02-25T13:19:20.569Z,99257
2018-02-25T13:21:48.722Z,99260
2018-02-25T13:24:16.871Z,99256
2018-02-25T13:26:45.022Z,99246
2018-02-25T13:29:13.148Z,99250
2018-02-25T13:31:41.362Z,99244
2018-02-25T13:34:09.464Z,99246
2018-02-25T13:36:37.605Z,99238
2018-02-25T13:39:05.724Z,99244
2018-02-25T13:41:33.868Z,99242
2018-02-25T13:44:02.001Z,99236
2018-02-25T13:46:30.158Z,99245
2018-02-25T13:48:58.301Z,99238
2018-02-25T13:51:26.474Z,99232
2018-02-25T13:53:54.640Z,99240
2018-02-25T13:56:22.800Z,99230
2018-02-25T13:58:50.941Z,99234
2018-02-25T14:01:19.116Z,99243
2018-02-25T14:03:47.306Z,99227
2018-02-25T14:06:16.336Z,99233
2018-02-25T14:08:44.512Z,99230
2018-02-25T14:11:12.759Z,99233
2018-02-25T14:13:40.969Z,99230
2018-02-25T14:16:09.214Z,99230
2018-02-25T14:18:37.417Z,99233
2018-02-25T14:21:05.603Z,99234
2018-02-25T14:23:33.746Z,99240
2018-02-25T14:26:01.901Z,99227
2018-02-25T14:28:30.150Z,99219
2018-02-25T14:30:59.068Z,99223
2018-02-25T14:33:27.209Z,99232
2018-02-25T14:35:55.365Z,99220
2018-02-25T14:38:23.521Z,99221
2018-02-25T14:40:51.684Z,99227
2018-02-25T14:43:19.833Z,99224
2018-02-25T14:45:48.066Z,99231
2018-02-25T14:48:16.208Z,99221
2018-02-25T14:50:44.357Z,99222
2018-02-25T14:53:12.496Z,99223
2018-02-25T14:55:40.644Z,99212
2018-02-25T14:58:08.781Z,99214
2018-02-25T15:00:36.925Z,99219
2018-02-25T15:03:05.824Z,99217
2018-02-25T15:05:34.722Z,99214
2018-02-25T15:08:02.869Z,99220
2018-02-25T15:10:30.999Z,99211
2018-02-25T15:12:59.152Z,99216
2018-02-25T15:15:27.285Z,99214
2018-02-25T15:17:55.437Z,99229
2018-02-25T15:20:23.568Z,99219
2018-02-25T15:22:51.750Z,99213
2018-02-25T15:25:19.916Z,99213
2018-02-25T15:27:48.107Z,99208
2018-02-25T15:30:16.279Z,99195
2018-02-25T15:32:44.506Z,99193
2018-02-25T15:35:12.659Z,99191
2018-02-25T15:37:40.841Z,99190
2018-02-25T15:40:09.053Z,99189
2018-02-25T15:42:37.264Z,99204
2018-02-25T15:45:05.389Z,99190
2018-02-25T15:47:34.301Z,99194
2018-02-25T15:50:02.428Z,99195
2018-02-25T15:52:30.554Z,99195
2018-02-25T15:54:58.696Z,99191
2018-02-25T15:57:27.594Z,99200
2018-02-25T15:59:55.745Z,99196
2018-02-25T16:02:24.664Z,99202
2018-02-25T16:04:52.844Z,99223
2018-02-25T16:07:20.972Z,99226
2018-02-25T16:09:49.109Z,99228
2018-02-25T16:12:17.241Z,99234
2018-02-25T16:14:46.152Z,99235
2018-02-25T16:17:14.285Z,99232
2018-02-25T16:19:42.437Z,99233
2018-02-25T16:22:10.568Z,99230
2018-02-25T16:24:38.747Z,99232
2018-02-25T16:27:06.872Z,99231
2018-02-25T16:29:34.996Z,99241
2018-02-25T16:32:03.144Z,99242
2018-02-25T16:34:32.041Z,99240
2018-02-25T16:37:00.215Z,99247
2018-02-25T16:39:28.348Z,99247
2018-02-25T16:41:56.593Z,99251
2018-02-25T16:44:25.497Z,99236
2018-02-25T16:46:53.656Z,99255
2018-02-25T16:49:21.796Z,99245
2018-02-25T16:51:50.713Z,99256
2018-02-25T16:54:18.857Z,99248
2018-02-25T16:56:47.797Z,99265
2018-02-25T16:59:15.928Z,99262
2018-02-25T17:01:44.848Z,99267
2018-02-25T17:04:12.998Z,99258
2018-02-25T17:06:41.148Z,99268
2018-02-25T17:09:10.106Z,99273
2018-02-25T17:11:38.257Z,99282
2018-02-25T17:14:06.388Z,99281
2018-02-25T17:16:35.300Z,99283
2018-02-25T17:19:03.446Z,99288
2018-02-25T17:21:32.417Z,99289
2018-02-25T17:24:00.504Z,99291
2018-02-25T17:26:28.680Z,99292
2018-02-25T17:28:56.812Z,99299
2018-02-25T17:31:24.970Z,99305
2018-02-25T17:33:53.125Z,99296
2018-02-25T17:36:21.261Z,99297
2018-02-25T17:38:49.409Z,99295
2018-02-25T17:41:17.545Z,99290
2018-02-25T17:43:45.697Z,99300
2018-02-25T17:46:14.596Z,99311
2018-02-25T17:48:43.516Z,99308
2018-02-25T17:51:11.652Z,99297
2018-02-25T17:53:40.654Z,99305
2018-02-25T17:56:08.781Z,99312
2018-02-25T17:58:36.944Z,99307
2018-02-25T18:01:05.090Z,99305
2018-02-25T18:03:33.244Z,99306
2018-02-25T18:06:02.144Z,99310
2018-02-25T18:08:31.081Z,99300
2018-02-25T18:10:59.209Z,99304
2018-02-25T18:13:27.379Z,99313
2018-02-25T18:15:55.521Z,99311
2018-02-25T18:18:23.672Z,99312
2018-02-25T18:20:51.804Z,99324
2018-02-25T18:23:19.977Z,99325
2018-02-25T18:25:48.100Z,99318
2018-02-25T18:28:16.270Z,99317
2018-02-25T18:30:44.406Z,99330
2018-02-25T18:33:12.540Z,99322
2018-02-25T18:35:40.688Z,99327
2018-02-25T18:38:08.825Z,99321
2018-02-25T18:40:36.978Z,99323
2018-02-25T18:43:05.868Z,99331
2018-02-25T18:45:34.864Z,99324
2018-02-25T18:48:03.014Z,99326
2018-02-25T18:50:31.168Z,99321
2018-02-25T18:52:59.302Z,99326
2018-02-25T18:55:27.465Z,99328
2018-02-25T18:57:55.600Z,99321
2018-02-25T19:00:23.789Z,99325
2018-02-25T19:02:52.689Z,99331
2018-02-25T19:05:21.674Z,99339
2018-02-25T19:07:49.809Z,99336
2018-02-25T19:10:17.957Z,99338
2018-02-25T19:12:46.120Z,99338
2018-02-25T19:15:14.293Z,99338
2018-02-25T19:17:42.421Z,99337
2018-02-25T19:20:10.577Z,99337
2018-02-25T19:22:38.704Z,99341
2018-02-25T19:25:06.857Z,99343
2018-02-25T19:27:35.009Z,99342
2018-02-25T19:30:03.162Z,99339
2018-02-25T19:32:31.309Z,99342
2018-02-25T19:34:59.465Z,99351
2018-02-25T19:37:33.221Z,99346
2018-02-25T19:40:01.715Z,99348
2018-02-25T19:42:29.843Z,99347
2018-02-25T19:44:57.992Z,99343
2018-02-25T19:47:27.728Z,99349
2018-02-25T19:49:55.878Z,99346
2018-02-25T19:52:24.035Z,99331
2018-02-25T19:54:52.940Z,99349
2018-02-25T19:57:21.093Z,99340
2018-02-25T19:59:49.999Z,99355
2018-02-25T20:02:18.152Z,99340
2018-02-25T20:04:47.077Z,99351
2018-02-25T20:07:15.249Z,99352
2018-02-25T20:09:43.424Z,99358
2018-02-25T20:12:11.668Z,99358
2018-02-25T20:14:40.608Z,99352
2018-02-25T20:17:08.851Z,99344
2018-02-25T20:19:37.013Z,99344
2018-02-25T20:22:05.977Z,99361
2018-02-25T20:24:34.206Z,99346
2018-02-25T20:27:02.396Z,99346
2018-02-25T20:29:30.613Z,99355
2018-02-25T20:31:58.834Z,99349
2018-02-25T20:34:27.012Z,99351
2018-02-25T20:36:55.192Z,99356
2018-02-25T20:39:23.374Z,99350
2018-02-25T20:41:51.513Z,99345
2018-02-25T20:44:19.664Z,99342
2018-02-25T20:46:48.565Z,99346
2018-02-25T20:49:17.487Z,99348
2018-02-25T20:51:45.616Z,99354
2018-02-25T20:54:13.769Z,99353
2018-02-25T20:56:41.909Z,99353
2018-02-25T20:59:10.057Z,99351
2018-02-25T21:01:38.189Z,99355
2018-02-25T21:04:06.346Z,99352
2018-02-25T21:06:34.477Z,99346
2018-02-25T21:09:02.625Z,99350
2018-02-25T21:11:30.769Z,99353
2018-02-25T21:13:58.914Z,99349
2018-02-25T21:16:27.045Z,99343
2018-02-25T21:18:56.017Z,99357
2018-02-25T21:21:24.148Z,99348
2018-02-25T21:23:52.313Z,99352
2018-02-25T21:26:20.505Z,99351
2018-02-25T21:28:48.641Z,99348
2018-02-25T21:31:17.557Z,99358
2018-02-25T21:33:45.685Z,99348
2018-02-25T21:36:13.836Z,99351
2018-02-25T21:38:41.961Z,99358
2018-02-25T21:41:10.116Z,99358
2018-02-25T21:43:39.032Z,99360
2018-02-25T21:46:07.251Z,99355
2018-02-25T21:48:35.380Z,99354
2018-02-25T21:51:03.574Z,99364
2018-02-25T21:53:37.156Z,99359
2018-02-25T21:56:10.884Z,99355
2018-02-25T21:58:44.593Z,99356
2018-02-25T22:01:18.289Z,99365
2018-02-25T22:03:46.427Z,99363
2018-02-25T22:06:14.598Z,99366
2018-02-25T22:08:42.745Z,99365
2018-02-25T22:11:10.907Z,99367
2018-02-25T22:13:39.058Z,99372
2018-02-25T22:16:07.219Z,99369
2018-02-25T22:18:35.377Z,99371
2018-02-25T22:21:03.513Z,99366
2018-02-25T22:23:31.669Z,99369
2018-02-25T22:25:59.797Z,99360
2018-02-25T22:28:35.257Z,99366
2018-02-25T22:31:03.404Z,99371
2018-02-25T22:33:31.564Z,99365
2018-02-25T22:36:00.456Z,99365
2018-02-25T22:38:29.378Z,99365
2018-02-25T22:40:57.517Z,99367
2018-02-25T22:43:26.433Z,99367
2018-02-25T22:45:54.573Z,99350
2018-02-25T22:48:23.497Z,99368
2018-02-25T22:50:51.628Z,99379
2018-02-25T22:53:19.787Z,99356
2018-02-25T22:55:47.941Z,99377
2018-02-25T22:58:16.089Z,99368
2018-02-25T23:00:44.222Z,99379
2018-02-25T23:03:12.373Z,99373
2018-02-25T23:05:40.501Z,99368
2018-02-25T23:08:08.661Z,99373
2018-02-25T23:10:37.561Z,99368
2018-02-25T23:13:05.690Z,99374
2018-02-25T23:15:33.882Z,99379
2018-02-25T23:18:02.013Z,99379
2018-02-25T23:20:37.657Z,99386
2018-02-25T23:23:05.781Z,99379
2018-02-25T23:25:34.697Z,99379
2018-02-25T23:28:02.828Z,99380
2018-02-25T23:30:30.980Z,99372
2018-02-25T23:32:59.114Z,99369
2018-02-25T23:35:27.265Z,99376
2018-02-25T23:37:56.165Z,99368
2018-02-25T23:40:24.329Z,99379
2018-02-25T23:42:53.241Z,99365
2018-02-25T23:45:21.394Z,99367
2018-02-25T23:47:50.292Z,99375
2018-02-25T23:50:19.213Z,99371
2018-02-25T23:52:47.340Z,99369
2018-02-25T23:55:15.538Z,99367
2018-02-25T23:57:43.673Z,99369
